sensor_id;sensor_type;location;lat;lon;timestamp;P1;durP1;ratioP1;P2;durP2;ratioP2
39656;SDS011;25337;51.478;7.510;2024-03-23T00:54:38;23.45;;;5.35;;
39656;SDS011;25337;51.478;7.510;2024-03-23T00:57:03;18.38;;;5.00;;
39656;SDS011;25337;51.478;7.510;2024-03-23T00:59:29;18.75;;;4.88;;
39656;SDS011;25337;51.478;7.510;2024-03-23T01:01:56;22.70;;;5.47;;
39656;SDS011;25337;51.478;7.510;2024-03-23T01:04:21;17.88;;;4.60;;
39656;SDS011;25337;51.478;7.510;2024-03-23T01:06:47;21.20;;;4.90;;
39656;SDS011;25337;51.478;7.510;2024-03-23T01:09:13;16.80;;;4.68;;
39656;SDS011;25337;51.478;7.510;2024-03-23T01:11:39;18.15;;;4.15;;
39656;SDS011;25337;51.478;7.510;2024-03-23T01:14:04;15.63;;;4.30;;
39656;SDS011;25337;51.478;7.510;2024-03-23T01:16:31;22.45;;;4.95;;
39656;SDS011;25337;51.478;7.510;2024-03-23T01:18:57;21.70;;;4.10;;
39656;SDS011;25337;51.478;7.510;2024-03-23T01:21:23;15.95;;;4.10;;
39656;SDS011;25337;51.478;7.510;2024-03-23T01:23:48;20.75;;;4.65;;
39656;SDS011;25337;51.478;7.510;2024-03-23T01:26:14;14.13;;;4.13;;
39656;SDS011;25337;51.478;7.510;2024-03-23T01:28:39;13.13;;;4.68;;
39656;SDS011;25337;51.478;7.510;2024-03-23T01:31:05;19.92;;;3.83;;
39656;SDS011;25337;51.478;7.510;2024-03-23T01:33:31;19.35;;;3.63;;
39656;SDS011;25337;51.478;7.510;2024-03-23T01:35:56;12.57;;;4.32;;
39656;SDS011;25337;51.478;7.510;2024-03-23T01:38:22;14.75;;;3.65;;
39656;SDS011;25337;51.478;7.510;2024-03-23T01:40:48;17.95;;;3.63;;
39656;SDS011;25337;51.478;7.510;2024-03-23T01:43:13;13.43;;;4.47;;
39656;SDS011;25337;51.478;7.510;2024-03-23T01:45:39;13.10;;;3.28;;
39656;SDS011;25337;51.478;7.510;2024-03-23T01:48:05;17.77;;;3.47;;
39656;SDS011;25337;51.478;7.510;2024-03-23T01:50:31;11.68;;;3.58;;
39656;SDS011;25337;51.478;7.510;2024-03-23T01:53:01;13.20;;;3.03;;
39656;SDS011;25337;51.478;7.510;2024-03-23T01:55:28;15.38;;;4.05;;
39656;SDS011;25337;51.478;7.510;2024-03-23T01:57:56;14.85;;;3.30;;
39656;SDS011;25337;51.478;7.510;2024-03-23T02:00:22;12.15;;;2.92;;
39656;SDS011;25337;51.478;7.510;2024-03-23T02:02:48;9.70;;;2.35;;
39656;SDS011;25337;51.478;7.510;2024-03-23T02:05:14;9.98;;;2.50;;
39656;SDS011;25337;51.478;7.510;2024-03-23T02:07:40;11.55;;;2.90;;
39656;SDS011;25337;51.478;7.510;2024-03-23T02:10:07;13.07;;;3.00;;
39656;SDS011;25337;51.478;7.510;2024-03-23T02:12:34;5.15;;;1.83;;
39656;SDS011;25337;51.478;7.510;2024-03-23T02:15:00;11.45;;;2.83;;
39656;SDS011;25337;51.478;7.510;2024-03-23T02:17:26;9.57;;;3.10;;
39656;SDS011;25337;51.478;7.510;2024-03-23T02:19:52;13.27;;;3.15;;
39656;SDS011;25337;51.478;7.510;2024-03-23T02:22:18;7.03;;;2.00;;
39656;SDS011;25337;51.478;7.510;2024-03-23T02:24:44;10.43;;;2.30;;
39656;SDS011;25337;51.478;7.510;2024-03-23T02:27:09;11.65;;;2.30;;
39656;SDS011;25337;51.478;7.510;2024-03-23T02:29:35;12.80;;;2.28;;
39656;SDS011;25337;51.478;7.510;2024-03-23T02:32:01;10.88;;;1.95;;
39656;SDS011;25337;51.478;7.510;2024-03-23T02:34:26;12.68;;;2.20;;
39656;SDS011;25337;51.478;7.510;2024-03-23T02:36:52;11.07;;;2.50;;
39656;SDS011;25337;51.478;7.510;2024-03-23T02:39:17;11.93;;;2.47;;
39656;SDS011;25337;51.478;7.510;2024-03-23T02:41:43;11.30;;;2.38;;
39656;SDS011;25337;51.478;7.510;2024-03-23T02:44:08;10.98;;;2.10;;
39656;SDS011;25337;51.478;7.510;2024-03-23T02:46:36;12.48;;;2.70;;
39656;SDS011;25337;51.478;7.510;2024-03-23T02:49:03;12.43;;;2.67;;
39656;SDS011;25337;51.478;7.510;2024-03-23T02:51:29;7.47;;;2.00;;
39656;SDS011;25337;51.478;7.510;2024-03-23T02:53:55;6.60;;;1.88;;
39656;SDS011;25337;51.478;7.510;2024-03-23T02:56:21;16.23;;;2.88;;
39656;SDS011;25337;51.478;7.510;2024-03-23T02:58:47;15.50;;;2.58;;
39656;SDS011;25337;51.478;7.510;2024-03-23T03:01:12;10.35;;;2.80;;
39656;SDS011;25337;51.478;7.510;2024-03-23T03:03:38;14.10;;;2.95;;
39656;SDS011;25337;51.478;7.510;2024-03-23T03:06:04;8.85;;;2.13;;
39656;SDS011;25337;51.478;7.510;2024-03-23T03:08:29;16.25;;;2.88;;
39656;SDS011;25337;51.478;7.510;2024-03-23T03:10:55;7.95;;;1.80;;
39656;SDS011;25337;51.478;7.510;2024-03-23T03:13:21;10.40;;;2.53;;
39656;SDS011;25337;51.478;7.510;2024-03-23T03:15:46;9.40;;;3.28;;
39656;SDS011;25337;51.478;7.510;2024-03-23T03:18:12;13.57;;;3.10;;
39656;SDS011;25337;51.478;7.510;2024-03-23T03:20:38;8.35;;;2.08;;
39656;SDS011;25337;51.478;7.510;2024-03-23T03:23:04;9.27;;;2.05;;
39656;SDS011;25337;51.478;7.510;2024-03-23T03:25:30;10.07;;;2.60;;
39656;SDS011;25337;51.478;7.510;2024-03-23T03:27:56;15.20;;;2.38;;
39656;SDS011;25337;51.478;7.510;2024-03-23T03:30:21;10.35;;;2.47;;
39656;SDS011;25337;51.478;7.510;2024-03-23T03:32:47;11.65;;;3.13;;
39656;SDS011;25337;51.478;7.510;2024-03-23T03:35:13;12.93;;;3.08;;
39656;SDS011;25337;51.478;7.510;2024-03-23T03:37:38;13.82;;;2.63;;
39656;SDS011;25337;51.478;7.510;2024-03-23T03:40:04;12.02;;;2.33;;
39656;SDS011;25337;51.478;7.510;2024-03-23T03:42:33;6.85;;;2.13;;
39656;SDS011;25337;51.478;7.510;2024-03-23T03:44:59;10.25;;;2.35;;
39656;SDS011;25337;51.478;7.510;2024-03-23T03:47:25;11.82;;;2.50;;
39656;SDS011;25337;51.478;7.510;2024-03-23T03:49:51;11.23;;;2.47;;
39656;SDS011;25337;51.478;7.510;2024-03-23T03:52:16;8.80;;;1.85;;
39656;SDS011;25337;51.478;7.510;2024-03-23T03:54:42;10.73;;;2.15;;
39656;SDS011;25337;51.478;7.510;2024-03-23T03:57:07;7.95;;;2.28;;
39656;SDS011;25337;51.478;7.510;2024-03-23T03:59:33;11.77;;;2.55;;
39656;SDS011;25337;51.478;7.510;2024-03-23T04:01:59;6.93;;;1.90;;
39656;SDS011;25337;51.478;7.510;2024-03-23T04:04:24;10.80;;;2.42;;
39656;SDS011;25337;51.478;7.510;2024-03-23T04:06:55;9.82;;;2.60;;
39656;SDS011;25337;51.478;7.510;2024-03-23T04:09:26;13.00;;;2.25;;
39656;SDS011;25337;51.478;7.510;2024-03-23T04:11:52;10.13;;;1.92;;
39656;SDS011;25337;51.478;7.510;2024-03-23T04:14:17;11.40;;;2.47;;
39656;SDS011;25337;51.478;7.510;2024-03-23T04:16:43;17.38;;;3.53;;
39656;SDS011;25337;51.478;7.510;2024-03-23T04:19:08;12.82;;;2.75;;
39656;SDS011;25337;51.478;7.510;2024-03-23T04:21:35;8.85;;;2.55;;
39656;SDS011;25337;51.478;7.510;2024-03-23T04:24:01;8.05;;;2.90;;
39656;SDS011;25337;51.478;7.510;2024-03-23T04:26:26;14.98;;;3.15;;
39656;SDS011;25337;51.478;7.510;2024-03-23T04:28:53;9.23;;;2.47;;
39656;SDS011;25337;51.478;7.510;2024-03-23T04:31:18;14.18;;;2.70;;
39656;SDS011;25337;51.478;7.510;2024-03-23T04:33:44;11.68;;;2.45;;
39656;SDS011;25337;51.478;7.510;2024-03-23T04:36:10;12.45;;;2.95;;
39656;SDS011;25337;51.478;7.510;2024-03-23T04:38:35;13.18;;;3.38;;
39656;SDS011;25337;51.478;7.510;2024-03-23T04:41:01;13.57;;;2.45;;
39656;SDS011;25337;51.478;7.510;2024-03-23T04:43:27;9.65;;;2.03;;
39656;SDS011;25337;51.478;7.510;2024-03-23T04:45:53;10.55;;;2.83;;
39656;SDS011;25337;51.478;7.510;2024-03-23T04:48:22;14.73;;;3.45;;
39656;SDS011;25337;51.478;7.510;2024-03-23T04:50:48;13.30;;;3.08;;
39656;SDS011;25337;51.478;7.510;2024-03-23T04:53:15;13.55;;;3.20;;
39656;SDS011;25337;51.478;7.510;2024-03-23T04:55:41;11.30;;;3.05;;
39656;SDS011;25337;51.478;7.510;2024-03-23T04:58:08;15.27;;;3.30;;
39656;SDS011;25337;51.478;7.510;2024-03-23T05:00:33;18.25;;;3.78;;
39656;SDS011;25337;51.478;7.510;2024-03-23T05:02:59;7.60;;;2.30;;
39656;SDS011;25337;51.478;7.510;2024-03-23T05:05:25;12.80;;;3.33;;
39656;SDS011;25337;51.478;7.510;2024-03-23T05:07:50;14.13;;;3.72;;
39656;SDS011;25337;51.478;7.510;2024-03-23T05:10:16;16.88;;;3.95;;
39656;SDS011;25337;51.478;7.510;2024-03-23T05:12:42;12.73;;;2.83;;
39656;SDS011;25337;51.478;7.510;2024-03-23T05:15:08;12.43;;;3.38;;
39656;SDS011;25337;51.478;7.510;2024-03-23T05:17:33;16.17;;;2.78;;
39656;SDS011;25337;51.478;7.510;2024-03-23T05:19:59;14.00;;;2.45;;
39656;SDS011;25337;51.478;7.510;2024-03-23T05:22:25;16.65;;;3.20;;
39656;SDS011;25337;51.478;7.510;2024-03-23T05:24:52;6.95;;;2.58;;
39656;SDS011;25337;51.478;7.510;2024-03-23T05:27:18;13.10;;;3.10;;
39656;SDS011;25337;51.478;7.510;2024-03-23T05:29:44;16.27;;;2.85;;
39656;SDS011;25337;51.478;7.510;2024-03-23T05:32:09;11.68;;;3.38;;
39656;SDS011;25337;51.478;7.510;2024-03-23T05:34:35;14.63;;;3.50;;
39656;SDS011;25337;51.478;7.510;2024-03-23T05:37:00;15.40;;;4.20;;
39656;SDS011;25337;51.478;7.510;2024-03-23T05:39:26;11.23;;;3.40;;
39656;SDS011;25337;51.478;7.510;2024-03-23T05:41:52;11.60;;;3.33;;
39656;SDS011;25337;51.478;7.510;2024-03-23T05:44:18;15.93;;;4.40;;
39656;SDS011;25337;51.478;7.510;2024-03-23T05:46:43;16.05;;;4.30;;
39656;SDS011;25337;51.478;7.510;2024-03-23T05:49:13;17.48;;;3.80;;
39656;SDS011;25337;51.478;7.510;2024-03-23T05:51:39;12.02;;;3.60;;
39656;SDS011;25337;51.478;7.510;2024-03-23T05:54:04;13.25;;;3.33;;
39656;SDS011;25337;51.478;7.510;2024-03-23T05:56:30;14.35;;;3.30;;
39656;SDS011;25337;51.478;7.510;2024-03-23T05:58:56;20.10;;;3.38;;
39656;SDS011;25337;51.478;7.510;2024-03-23T06:01:22;15.55;;;4.38;;
39656;SDS011;25337;51.478;7.510;2024-03-23T06:03:47;16.05;;;5.45;;
39656;SDS011;25337;51.478;7.510;2024-03-23T06:06:13;20.50;;;5.40;;
39656;SDS011;25337;51.478;7.510;2024-03-23T06:08:39;15.48;;;6.25;;
39656;SDS011;25337;51.478;7.510;2024-03-23T06:11:05;10.18;;;3.97;;
39656;SDS011;25337;51.478;7.510;2024-03-23T06:13:33;20.42;;;6.32;;
39656;SDS011;25337;51.478;7.510;2024-03-23T06:16:00;23.45;;;6.72;;
39656;SDS011;25337;51.478;7.510;2024-03-23T06:18:28;18.60;;;6.65;;
39656;SDS011;25337;51.478;7.510;2024-03-23T06:20:54;18.52;;;6.32;;
39656;SDS011;25337;51.478;7.510;2024-03-23T06:23:19;15.13;;;4.93;;
39656;SDS011;25337;51.478;7.510;2024-03-23T06:25:46;25.50;;;8.05;;
39656;SDS011;25337;51.478;7.510;2024-03-23T06:28:12;18.33;;;6.82;;
39656;SDS011;25337;51.478;7.510;2024-03-23T06:30:38;13.20;;;5.13;;
39656;SDS011;25337;51.478;7.510;2024-03-23T06:33:04;23.95;;;8.02;;
39656;SDS011;25337;51.478;7.510;2024-03-23T06:35:30;26.20;;;8.05;;
39656;SDS011;25337;51.478;7.510;2024-03-23T06:37:56;27.27;;;7.90;;
39656;SDS011;25337;51.478;7.510;2024-03-23T06:40:23;22.67;;;7.82;;
39656;SDS011;25337;51.478;7.510;2024-03-23T06:42:49;23.45;;;7.82;;
39656;SDS011;25337;51.478;7.510;2024-03-23T06:45:16;31.15;;;11.15;;
39656;SDS011;25337;51.478;7.510;2024-03-23T06:47:44;28.55;;;9.68;;
39656;SDS011;25337;51.478;7.510;2024-03-23T06:50:09;29.55;;;8.93;;
39656;SDS011;25337;51.478;7.510;2024-03-23T06:52:36;13.45;;;6.68;;
39656;SDS011;25337;51.478;7.510;2024-03-23T06:55:02;30.92;;;11.38;;
39656;SDS011;25337;51.478;7.510;2024-03-23T06:57:29;32.22;;;11.57;;
39656;SDS011;25337;51.478;7.510;2024-03-23T06:59:55;29.25;;;10.25;;
39656;SDS011;25337;51.478;7.510;2024-03-23T07:02:20;27.45;;;9.52;;
39656;SDS011;25337;51.478;7.510;2024-03-23T07:04:46;27.88;;;10.15;;
39656;SDS011;25337;51.478;7.510;2024-03-23T07:07:12;26.45;;;9.05;;
39656;SDS011;25337;51.478;7.510;2024-03-23T07:09:37;22.83;;;9.13;;
39656;SDS011;25337;51.478;7.510;2024-03-23T07:12:03;43.85;;;12.43;;
39656;SDS011;25337;51.478;7.510;2024-03-23T07:14:29;30.48;;;11.02;;
39656;SDS011;25337;51.478;7.510;2024-03-23T07:16:55;38.95;;;13.10;;
39656;SDS011;25337;51.478;7.510;2024-03-23T07:19:21;29.13;;;9.55;;
39656;SDS011;25337;51.478;7.510;2024-03-23T07:21:47;33.40;;;13.90;;
39656;SDS011;25337;51.478;7.510;2024-03-23T07:24:13;29.83;;;13.30;;
39656;SDS011;25337;51.478;7.510;2024-03-23T07:26:38;33.03;;;13.43;;
39656;SDS011;25337;51.478;7.510;2024-03-23T07:29:04;29.52;;;12.02;;
39656;SDS011;25337;51.478;7.510;2024-03-23T07:31:31;40.75;;;15.00;;
39656;SDS011;25337;51.478;7.510;2024-03-23T07:33:57;36.97;;;13.65;;
39656;SDS011;25337;51.478;7.510;2024-03-23T07:36:22;33.80;;;15.13;;
39656;SDS011;25337;51.478;7.510;2024-03-23T07:38:48;25.98;;;11.43;;
39656;SDS011;25337;51.478;7.510;2024-03-23T07:41:15;29.08;;;12.77;;
39656;SDS011;25337;51.478;7.510;2024-03-23T07:43:44;33.90;;;14.07;;
39656;SDS011;25337;51.478;7.510;2024-03-23T07:46:11;32.85;;;13.20;;
39656;SDS011;25337;51.478;7.510;2024-03-23T07:54:30;31.10;;;10.55;;
39656;SDS011;25337;51.478;7.510;2024-03-23T07:56:56;26.08;;;11.50;;
39656;SDS011;25337;51.478;7.510;2024-03-23T07:59:21;32.25;;;13.50;;
39656;SDS011;25337;51.478;7.510;2024-03-23T08:01:47;19.30;;;9.02;;
39656;SDS011;25337;51.478;7.510;2024-03-23T08:04:13;26.17;;;10.70;;
39656;SDS011;25337;51.478;7.510;2024-03-23T08:06:38;27.48;;;13.13;;
39656;SDS011;25337;51.478;7.510;2024-03-23T08:09:04;31.38;;;11.63;;
39656;SDS011;25337;51.478;7.510;2024-03-23T08:11:30;33.88;;;12.68;;
39656;SDS011;25337;51.478;7.510;2024-03-23T08:13:57;30.20;;;11.60;;
39656;SDS011;25337;51.478;7.510;2024-03-23T08:16:23;28.95;;;10.98;;
39656;SDS011;25337;51.478;7.510;2024-03-23T08:18:52;24.25;;;9.85;;
39656;SDS011;25337;51.478;7.510;2024-03-23T08:21:18;29.15;;;10.80;;
39656;SDS011;25337;51.478;7.510;2024-03-23T08:23:43;38.95;;;14.27;;
39656;SDS011;25337;51.478;7.510;2024-03-23T08:26:10;29.90;;;11.52;;
39656;SDS011;25337;51.478;7.510;2024-03-23T08:28:37;31.73;;;10.15;;
39656;SDS011;25337;51.478;7.510;2024-03-23T08:31:05;22.10;;;8.77;;
39656;SDS011;25337;51.478;7.510;2024-03-23T08:33:32;25.77;;;10.48;;
39656;SDS011;25337;51.478;7.510;2024-03-23T08:36:01;28.20;;;10.75;;
39656;SDS011;25337;51.478;7.510;2024-03-23T08:38:30;28.23;;;10.57;;
39656;SDS011;25337;51.478;7.510;2024-03-23T08:41:00;16.38;;;6.15;;
39656;SDS011;25337;51.478;7.510;2024-03-23T08:43:31;24.40;;;9.18;;
39656;SDS011;25337;51.478;7.510;2024-03-23T08:46:10;16.60;;;5.82;;
39656;SDS011;25337;51.478;7.510;2024-03-23T08:48:41;16.92;;;5.35;;
39656;SDS011;25337;51.478;7.510;2024-03-23T08:51:09;15.45;;;6.60;;
39656;SDS011;25337;51.478;7.510;2024-03-23T08:53:35;24.58;;;7.05;;
39656;SDS011;25337;51.478;7.510;2024-03-23T08:56:02;19.60;;;6.90;;
39656;SDS011;25337;51.478;7.510;2024-03-23T08:58:30;14.30;;;5.32;;
39656;SDS011;25337;51.478;7.510;2024-03-23T09:00:57;16.50;;;6.25;;
39656;SDS011;25337;51.478;7.510;2024-03-23T09:03:35;17.50;;;6.75;;
39656;SDS011;25337;51.478;7.510;2024-03-23T09:06:08;18.40;;;6.75;;
39656;SDS011;25337;51.478;7.510;2024-03-23T09:08:34;25.15;;;8.45;;
39656;SDS011;25337;51.478;7.510;2024-03-23T09:11:08;16.90;;;5.63;;
39656;SDS011;25337;51.478;7.510;2024-03-23T09:13:36;17.27;;;4.97;;
39656;SDS011;25337;51.478;7.510;2024-03-23T09:16:02;23.27;;;5.90;;
39656;SDS011;25337;51.478;7.510;2024-03-23T09:18:31;13.30;;;4.18;;
39656;SDS011;25337;51.478;7.510;2024-03-23T09:20:57;15.40;;;4.68;;
39656;SDS011;25337;51.478;7.510;2024-03-23T09:23:23;17.25;;;4.78;;
39656;SDS011;25337;51.478;7.510;2024-03-23T09:25:49;11.35;;;4.90;;
39656;SDS011;25337;51.478;7.510;2024-03-23T09:28:15;13.02;;;5.45;;
39656;SDS011;25337;51.478;7.510;2024-03-23T09:30:40;13.93;;;5.70;;
39656;SDS011;25337;51.478;7.510;2024-03-23T09:33:12;17.10;;;4.68;;
39656;SDS011;25337;51.478;7.510;2024-03-23T09:35:39;13.52;;;4.35;;
39656;SDS011;25337;51.478;7.510;2024-03-23T09:38:06;7.43;;;3.35;;
39656;SDS011;25337;51.478;7.510;2024-03-23T09:40:35;11.07;;;4.93;;
39656;SDS011;25337;51.478;7.510;2024-03-23T09:43:09;8.60;;;3.47;;
39656;SDS011;25337;51.478;7.510;2024-03-23T09:45:39;8.30;;;2.83;;
39656;SDS011;25337;51.478;7.510;2024-03-23T09:48:06;8.25;;;2.85;;
39656;SDS011;25337;51.478;7.510;2024-03-23T09:50:33;6.90;;;2.20;;
39656;SDS011;25337;51.478;7.510;2024-03-23T09:53:00;8.68;;;3.08;;
39656;SDS011;25337;51.478;7.510;2024-03-23T09:55:26;7.63;;;2.20;;
39656;SDS011;25337;51.478;7.510;2024-03-23T09:57:52;8.40;;;2.33;;
39656;SDS011;25337;51.478;7.510;2024-03-23T10:00:17;7.20;;;2.13;;
39656;SDS011;25337;51.478;7.510;2024-03-23T10:02:43;7.53;;;1.98;;
39656;SDS011;25337;51.478;7.510;2024-03-23T10:05:19;6.38;;;2.58;;
39656;SDS011;25337;51.478;7.510;2024-03-23T10:07:51;5.55;;;1.88;;
39656;SDS011;25337;51.478;7.510;2024-03-23T10:10:17;6.28;;;2.20;;
39656;SDS011;25337;51.478;7.510;2024-03-23T10:12:44;11.40;;;2.83;;
39656;SDS011;25337;51.478;7.510;2024-03-23T10:15:19;9.23;;;3.40;;
39656;SDS011;25337;51.478;7.510;2024-03-23T10:17:46;9.65;;;3.03;;
39656;SDS011;25337;51.478;7.510;2024-03-23T10:20:12;8.65;;;3.25;;
39656;SDS011;25337;51.478;7.510;2024-03-23T10:22:38;10.82;;;2.80;;
39656;SDS011;25337;51.478;7.510;2024-03-23T10:25:08;9.15;;;3.20;;
39656;SDS011;25337;51.478;7.510;2024-03-23T10:27:34;12.00;;;3.42;;
39656;SDS011;25337;51.478;7.510;2024-03-23T10:30:10;16.27;;;4.30;;
39656;SDS011;25337;51.478;7.510;2024-03-23T10:32:37;11.43;;;5.63;;
39656;SDS011;25337;51.478;7.510;2024-03-23T10:35:24;9.90;;;3.85;;
39656;SDS011;25337;51.478;7.510;2024-03-23T10:37:49;15.48;;;4.28;;
39656;SDS011;25337;51.478;7.510;2024-03-23T10:40:17;9.07;;;3.45;;
39656;SDS011;25337;51.478;7.510;2024-03-23T10:42:43;12.30;;;3.47;;
39656;SDS011;25337;51.478;7.510;2024-03-23T10:45:09;12.18;;;3.60;;
39656;SDS011;25337;51.478;7.510;2024-03-23T10:47:36;11.73;;;2.88;;
39656;SDS011;25337;51.478;7.510;2024-03-23T10:50:05;10.30;;;2.83;;
39656;SDS011;25337;51.478;7.510;2024-03-23T10:52:32;5.50;;;2.03;;
39656;SDS011;25337;51.478;7.510;2024-03-23T10:54:58;10.23;;;2.70;;
39656;SDS011;25337;51.478;7.510;2024-03-23T10:58:11;9.68;;;3.10;;
39656;SDS011;25337;51.478;7.510;2024-03-23T11:00:14;6.72;;;2.40;;
39656;SDS011;25337;51.478;7.510;2024-03-23T11:02:41;4.50;;;1.63;;
39656;SDS011;25337;51.478;7.510;2024-03-23T11:05:27;12.82;;;1.58;;
39656;SDS011;25337;51.478;7.510;2024-03-23T11:07:56;8.38;;;1.83;;
39656;SDS011;25337;51.478;7.510;2024-03-23T11:10:29;15.73;;;2.20;;
39656;SDS011;25337;51.478;7.510;2024-03-23T11:12:56;11.90;;;2.15;;
39656;SDS011;25337;51.478;7.510;2024-03-23T11:15:22;9.60;;;1.95;;
39656;SDS011;25337;51.478;7.510;2024-03-23T11:18:06;6.90;;;2.08;;
39656;SDS011;25337;51.478;7.510;2024-03-23T11:20:37;7.20;;;2.30;;
39656;SDS011;25337;51.478;7.510;2024-03-23T11:23:03;4.00;;;1.30;;
39656;SDS011;25337;51.478;7.510;2024-03-23T11:25:29;2.63;;;1.13;;
39656;SDS011;25337;51.478;7.510;2024-03-23T11:27:56;2.35;;;1.10;;
39656;SDS011;25337;51.478;7.510;2024-03-23T11:30:26;3.13;;;1.05;;
39656;SDS011;25337;51.478;7.510;2024-03-23T11:32:54;2.60;;;1.00;;
39656;SDS011;25337;51.478;7.510;2024-03-23T11:35:31;1.45;;;0.80;;
39656;SDS011;25337;51.478;7.510;2024-03-23T11:38:07;4.40;;;1.00;;
39656;SDS011;25337;51.478;7.510;2024-03-23T11:40:41;5.63;;;1.35;;
39656;SDS011;25337;51.478;7.510;2024-03-23T11:43:09;2.50;;;1.00;;
39656;SDS011;25337;51.478;7.510;2024-03-23T11:45:39;2.95;;;1.10;;
39656;SDS011;25337;51.478;7.510;2024-03-23T11:48:08;5.10;;;1.50;;
39656;SDS011;25337;51.478;7.510;2024-03-23T11:50:36;1.55;;;0.80;;
39656;SDS011;25337;51.478;7.510;2024-03-23T11:53:16;2.83;;;0.98;;
39656;SDS011;25337;51.478;7.510;2024-03-23T11:55:46;2.77;;;1.10;;
39656;SDS011;25337;51.478;7.510;2024-03-23T11:58:17;3.10;;;1.38;;
39656;SDS011;25337;51.478;7.510;2024-03-23T12:03:22;3.60;;;1.15;;
39656;SDS011;25337;51.478;7.510;2024-03-23T12:05:52;4.17;;;1.20;;
39656;SDS011;25337;51.478;7.510;2024-03-23T12:11:13;2.70;;;1.02;;
39656;SDS011;25337;51.478;7.510;2024-03-23T12:13:43;5.70;;;1.67;;
39656;SDS011;25337;51.478;7.510;2024-03-23T12:16:12;4.97;;;1.30;;
39656;SDS011;25337;51.478;7.510;2024-03-23T12:18:38;6.18;;;2.15;;
39656;SDS011;25337;51.478;7.510;2024-03-23T12:21:05;5.82;;;1.52;;
39656;SDS011;25337;51.478;7.510;2024-03-23T12:23:31;5.13;;;1.60;;
39656;SDS011;25337;51.478;7.510;2024-03-23T12:25:57;4.85;;;1.60;;
39656;SDS011;25337;51.478;7.510;2024-03-23T12:28:23;5.47;;;1.45;;
39656;SDS011;25337;51.478;7.510;2024-03-23T12:30:49;7.25;;;1.98;;
39656;SDS011;25337;51.478;7.510;2024-03-23T12:33:14;7.65;;;2.03;;
39656;SDS011;25337;51.478;7.510;2024-03-23T12:35:40;8.98;;;2.08;;
39656;SDS011;25337;51.478;7.510;2024-03-23T12:38:05;8.00;;;2.22;;
39656;SDS011;25337;51.478;7.510;2024-03-23T12:40:32;4.18;;;1.80;;
39656;SDS011;25337;51.478;7.510;2024-03-23T12:42:57;5.95;;;2.50;;
39656;SDS011;25337;51.478;7.510;2024-03-23T12:45:23;6.57;;;2.30;;
39656;SDS011;25337;51.478;7.510;2024-03-23T12:47:48;6.80;;;2.33;;
39656;SDS011;25337;51.478;7.510;2024-03-23T12:50:14;8.18;;;1.95;;
39656;SDS011;25337;51.478;7.510;2024-03-23T12:52:40;7.50;;;2.00;;
39656;SDS011;25337;51.478;7.510;2024-03-23T12:55:06;6.93;;;1.75;;
39656;SDS011;25337;51.478;7.510;2024-03-23T12:57:32;6.65;;;1.88;;
39656;SDS011;25337;51.478;7.510;2024-03-23T12:59:58;5.63;;;1.73;;
39656;SDS011;25337;51.478;7.510;2024-03-23T13:02:24;5.85;;;1.67;;
39656;SDS011;25337;51.478;7.510;2024-03-23T13:04:50;8.23;;;1.73;;
39656;SDS011;25337;51.478;7.510;2024-03-23T13:07:17;4.32;;;1.38;;
39656;SDS011;25337;51.478;7.510;2024-03-23T13:09:43;5.32;;;1.40;;
39656;SDS011;25337;51.478;7.510;2024-03-23T13:12:09;6.15;;;1.50;;
39656;SDS011;25337;51.478;7.510;2024-03-23T13:14:37;3.38;;;1.10;;
39656;SDS011;25337;51.478;7.510;2024-03-23T13:17:03;6.47;;;1.45;;
39656;SDS011;25337;51.478;7.510;2024-03-23T13:19:29;5.57;;;1.30;;
39656;SDS011;25337;51.478;7.510;2024-03-23T13:21:56;7.00;;;1.60;;
39656;SDS011;25337;51.478;7.510;2024-03-23T13:24:23;6.40;;;1.50;;
39656;SDS011;25337;51.478;7.510;2024-03-23T13:26:52;5.80;;;1.63;;
39656;SDS011;25337;51.478;7.510;2024-03-23T13:29:19;6.78;;;1.83;;
39656;SDS011;25337;51.478;7.510;2024-03-23T13:31:45;6.07;;;1.95;;
39656;SDS011;25337;51.478;7.510;2024-03-23T13:34:12;7.97;;;2.05;;
39656;SDS011;25337;51.478;7.510;2024-03-23T13:36:40;7.60;;;2.28;;
39656;SDS011;25337;51.478;7.510;2024-03-23T13:39:06;7.07;;;2.38;;
39656;SDS011;25337;51.478;7.510;2024-03-23T13:41:37;7.07;;;1.90;;
39656;SDS011;25337;51.478;7.510;2024-03-23T13:44:06;4.22;;;1.45;;
39656;SDS011;25337;51.478;7.510;2024-03-23T13:46:32;10.05;;;2.30;;
39656;SDS011;25337;51.478;7.510;2024-03-23T13:48:58;5.85;;;1.83;;
39656;SDS011;25337;51.478;7.510;2024-03-23T13:51:25;6.00;;;1.65;;
39656;SDS011;25337;51.478;7.510;2024-03-23T13:53:54;4.45;;;1.80;;
39656;SDS011;25337;51.478;7.510;2024-03-23T13:56:30;5.72;;;1.88;;
39656;SDS011;25337;51.478;7.510;2024-03-23T13:58:55;6.65;;;2.10;;
39656;SDS011;25337;51.478;7.510;2024-03-23T14:01:21;7.53;;;1.70;;
39656;SDS011;25337;51.478;7.510;2024-03-23T14:03:49;4.40;;;1.40;;
39656;SDS011;25337;51.478;7.510;2024-03-23T14:06:15;6.32;;;1.73;;
39656;SDS011;25337;51.478;7.510;2024-03-23T14:08:40;7.18;;;1.95;;
39656;SDS011;25337;51.478;7.510;2024-03-23T14:11:07;4.30;;;1.13;;
39656;SDS011;25337;51.478;7.510;2024-03-23T14:13:36;4.80;;;1.63;;
39656;SDS011;25337;51.478;7.510;2024-03-23T14:16:02;5.28;;;1.33;;
39656;SDS011;25337;51.478;7.510;2024-03-23T14:18:29;8.63;;;2.42;;
39656;SDS011;25337;51.478;7.510;2024-03-23T14:20:58;5.95;;;1.85;;
39656;SDS011;25337;51.478;7.510;2024-03-23T14:23:25;3.90;;;1.40;;
39656;SDS011;25337;51.478;7.510;2024-03-23T14:25:55;6.80;;;2.03;;
39656;SDS011;25337;51.478;7.510;2024-03-23T14:28:21;7.35;;;2.60;;
39656;SDS011;25337;51.478;7.510;2024-03-23T14:30:48;7.43;;;1.80;;
39656;SDS011;25337;51.478;7.510;2024-03-23T14:33:15;5.82;;;2.00;;
39656;SDS011;25337;51.478;7.510;2024-03-23T14:35:41;10.35;;;1.85;;
39656;SDS011;25337;51.478;7.510;2024-03-23T14:38:07;7.38;;;1.77;;
39656;SDS011;25337;51.478;7.510;2024-03-23T14:40:32;3.88;;;1.30;;
39656;SDS011;25337;51.478;7.510;2024-03-23T14:42:58;4.90;;;1.55;;
39656;SDS011;25337;51.478;7.510;2024-03-23T14:45:24;5.30;;;1.38;;
39656;SDS011;25337;51.478;7.510;2024-03-23T14:47:50;4.78;;;1.15;;
39656;SDS011;25337;51.478;7.510;2024-03-23T14:50:16;5.60;;;1.45;;
39656;SDS011;25337;51.478;7.510;2024-03-23T14:52:45;11.70;;;1.83;;
39656;SDS011;25337;51.478;7.510;2024-03-23T14:55:11;5.97;;;1.85;;
39656;SDS011;25337;51.478;7.510;2024-03-23T14:57:38;10.15;;;1.75;;
39656;SDS011;25337;51.478;7.510;2024-03-23T15:00:09;6.30;;;1.55;;
39656;SDS011;25337;51.478;7.510;2024-03-23T15:02:39;6.45;;;2.00;;
39656;SDS011;25337;51.478;7.510;2024-03-23T15:05:05;8.07;;;1.80;;
39656;SDS011;25337;51.478;7.510;2024-03-23T15:07:35;4.28;;;1.50;;
39656;SDS011;25337;51.478;7.510;2024-03-23T15:10:03;4.05;;;1.83;;
39656;SDS011;25337;51.478;7.510;2024-03-23T15:12:30;4.50;;;1.05;;
39656;SDS011;25337;51.478;7.510;2024-03-23T15:14:57;4.53;;;1.25;;
39656;SDS011;25337;51.478;7.510;2024-03-23T15:17:23;5.70;;;1.45;;
39656;SDS011;25337;51.478;7.510;2024-03-23T15:19:49;5.78;;;1.40;;
39656;SDS011;25337;51.478;7.510;2024-03-23T15:22:14;5.20;;;1.90;;
39656;SDS011;25337;51.478;7.510;2024-03-23T15:24:40;3.80;;;1.08;;
39656;SDS011;25337;51.478;7.510;2024-03-23T15:27:06;5.75;;;1.23;;
39656;SDS011;25337;51.478;7.510;2024-03-23T15:29:34;4.18;;;1.30;;
39656;SDS011;25337;51.478;7.510;2024-03-23T15:32:01;4.13;;;1.15;;
39656;SDS011;25337;51.478;7.510;2024-03-23T15:34:28;4.05;;;1.15;;
39656;SDS011;25337;51.478;7.510;2024-03-23T15:36:54;5.50;;;1.55;;
39656;SDS011;25337;51.478;7.510;2024-03-23T15:39:20;7.60;;;1.20;;
39656;SDS011;25337;51.478;7.510;2024-03-23T15:41:47;6.60;;;1.67;;